createdAt,value
2023-01-15T00:00:18.642Z,16.55
2023-01-15T00:03:05.638Z,16.88
2023-01-15T00:05:36.323Z,17.63
2023-01-15T00:08:03.547Z,9.25
2023-01-15T00:10:30.952Z,12.75
2023-01-15T00:12:58.156Z,13.48
2023-01-15T00:15:26.007Z,11.02
2023-01-15T00:17:53.245Z,16.95
2023-01-15T00:20:20.686Z,16.38
2023-01-15T00:22:47.627Z,16.52
2023-01-15T00:25:33.711Z,15.65
2023-01-15T00:28:01.852Z,8.15
2023-01-15T00:30:29.390Z,11.40
2023-01-15T00:32:57.787Z,11.40
2023-01-15T00:35:25.711Z,12.65
2023-01-15T00:37:52.734Z,15.23
2023-01-15T00:40:22.030Z,13.05
2023-01-15T00:42:54.246Z,15.02
2023-01-15T00:45:22.890Z,16.30
2023-01-15T00:47:50.804Z,16.52
2023-01-15T00:50:18.445Z,16.27
2023-01-15T00:52:45.439Z,21.15
2023-01-15T00:55:12.909Z,20.05
2023-01-15T00:57:39.946Z,17.55
2023-01-15T01:00:07.855Z,17.77
2023-01-15T01:02:35.210Z,19.60
2023-01-15T01:05:02.632Z,14.35
2023-01-15T01:07:29.736Z,13.82
2023-01-15T01:09:57.045Z,18.30
2023-01-15T01:12:24.097Z,17.95
2023-01-15T01:14:51.578Z,17.17
2023-01-15T01:17:18.571Z,17.95
2023-01-15T01:19:46.099Z,16.95
2023-01-15T01:22:13.170Z,16.63
2023-01-15T01:24:40.461Z,14.00
2023-01-15T01:27:07.601Z,19.23
2023-01-15T01:29:34.960Z,18.70
2023-01-15T01:32:02.332Z,18.17
2023-01-15T01:34:29.750Z,16.75
2023-01-15T01:36:56.748Z,18.35
2023-01-15T01:39:24.081Z,16.10
2023-01-15T01:41:51.124Z,14.93
2023-01-15T01:44:33.729Z,14.93
2023-01-15T01:47:15.634Z,15.27
2023-01-15T01:49:44.631Z,14.98
2023-01-15T01:52:19.438Z,14.95
2023-01-15T01:54:49.577Z,12.90
2023-01-15T01:57:17.711Z,15.05
2023-01-15T01:59:45.709Z,13.55
2023-01-15T02:02:13.401Z,13.15
2023-01-15T02:04:41.310Z,15.52
2023-01-15T02:07:08.840Z,14.07
2023-01-15T02:09:36.301Z,12.77
2023-01-15T02:12:28.307Z,12.98
2023-01-15T02:15:12.773Z,13.38
2023-01-15T02:17:48.679Z,13.85
2023-01-15T02:20:28.931Z,12.52
2023-01-15T02:23:23.793Z,13.10
2023-01-15T02:26:14.158Z,13.40
2023-01-15T02:28:45.205Z,12.77
2023-01-15T02:31:17.940Z,11.38
2023-01-15T02:34:03.879Z,11.82
2023-01-15T02:36:35.434Z,11.50
2023-01-15T02:39:07.248Z,10.90
2023-01-15T02:41:41.210Z,11.52
2023-01-15T02:44:10.801Z,9.63
2023-01-15T02:46:39.682Z,11.80
2023-01-15T02:49:09.923Z,11.10
2023-01-15T02:51:46.130Z,11.00
2023-01-15T02:54:16.631Z,10.52
2023-01-15T02:56:48.425Z,11.35
2023-01-15T02:59:34.674Z,12.93
2023-01-15T03:02:05.362Z,10.73
2023-01-15T03:04:32.552Z,11.13
2023-01-15T03:07:12.691Z,10.63
2023-01-15T03:09:39.848Z,12.52
2023-01-15T03:12:56.013Z,9.95
2023-01-15T03:15:42.676Z,11.10
2023-01-15T03:18:13.262Z,10.50
2023-01-15T03:20:46.144Z,10.45
2023-01-15T03:23:16.159Z,10.77
2023-01-15T03:28:15.905Z,10.65
2023-01-15T03:33:12.794Z,8.05
2023-01-15T03:38:07.007Z,8.25
2023-01-15T03:40:38.989Z,8.32
2023-01-15T03:43:32.605Z,8.48
2023-01-15T03:46:04.671Z,9.93
2023-01-15T03:48:43.036Z,9.05
2023-01-15T03:51:20.248Z,9.32
2023-01-15T03:53:57.960Z,7.82
2023-01-15T03:56:28.144Z,8.15
2023-01-15T03:59:16.738Z,6.72
2023-01-15T04:01:47.001Z,6.07
2023-01-15T04:04:16.137Z,6.40
2023-01-15T04:06:44.822Z,7.07
2023-01-15T04:09:13.542Z,5.88
2023-01-15T04:11:40.582Z,6.63
2023-01-15T04:14:08.083Z,6.70
2023-01-15T04:16:35.337Z,6.20
2023-01-15T04:19:02.642Z,6.93
2023-01-15T04:21:29.747Z,5.88
2023-01-15T04:23:57.111Z,5.57
2023-01-15T04:26:24.546Z,7.63
2023-01-15T04:28:52.047Z,6.38
2023-01-15T04:31:19.101Z,7.57
2023-01-15T04:33:46.419Z,7.15
2023-01-15T04:36:14.701Z,7.20
2023-01-15T04:38:42.174Z,6.85
2023-01-15T04:41:28.101Z,6.88
2023-01-15T04:44:07.750Z,5.22
2023-01-15T04:46:40.496Z,7.35
2023-01-15T04:49:14.033Z,6.57
2023-01-15T04:51:42.108Z,6.50
2023-01-15T04:54:10.533Z,7.22
2023-01-15T04:56:42.131Z,7.63
2023-01-15T04:59:09.945Z,7.75
2023-01-15T05:01:37.520Z,7.15
2023-01-15T05:04:05.858Z,6.32
2023-01-15T05:06:33.473Z,9.07
2023-01-15T05:09:01.615Z,6.93
2023-01-15T05:11:28.874Z,5.75
2023-01-15T05:13:56.861Z,6.82
2023-01-15T05:16:26.716Z,7.10
2023-01-15T05:18:58.336Z,5.88
2023-01-15T05:21:28.097Z,7.50
2023-01-15T05:23:57.655Z,5.63
2023-01-15T05:26:26.461Z,6.40
2023-01-15T05:28:55.794Z,5.85
2023-01-15T05:31:24.412Z,5.72
2023-01-15T05:33:53.089Z,5.95
2023-01-15T05:36:23.710Z,6.03
2023-01-15T05:38:53.838Z,6.38
2023-01-15T05:41:41.138Z,2.80
2023-01-15T05:44:12.262Z,2.70
2023-01-15T05:46:40.879Z,6.00
2023-01-15T05:49:11.533Z,5.65
2023-01-15T05:51:39.555Z,6.20
2023-01-15T05:54:09.425Z,4.63
2023-01-15T05:56:37.699Z,5.85
2023-01-15T05:59:06.501Z,4.53
2023-01-15T06:01:34.054Z,5.32
2023-01-15T06:04:03.377Z,7.55
2023-01-15T06:06:30.877Z,5.82
2023-01-15T06:09:00.798Z,6.28
2023-01-15T06:11:27.824Z,7.60
2023-01-15T06:13:55.186Z,6.63
2023-01-15T06:16:23.004Z,4.53
2023-01-15T06:18:51.099Z,6.32
2023-01-15T06:21:18.233Z,6.50
2023-01-15T06:23:45.690Z,6.53
2023-01-15T06:26:16.708Z,6.30
2023-01-15T06:28:44.924Z,4.88
2023-01-15T06:31:15.300Z,5.88
2023-01-15T06:33:42.887Z,6.00
2023-01-15T06:36:12.722Z,3.88
2023-01-15T06:38:41.170Z,4.25
2023-01-15T06:41:31.558Z,4.00
2023-01-15T06:44:17.688Z,4.95
2023-01-15T06:47:05.296Z,5.15
2023-01-15T06:49:33.616Z,5.53
2023-01-15T06:52:03.740Z,6.45
2023-01-15T06:54:32.258Z,6.18
2023-01-15T06:56:59.429Z,7.00
2023-01-15T06:59:26.757Z,5.95
2023-01-15T07:01:54.161Z,7.20
2023-01-15T07:04:22.566Z,3.80
2023-01-15T07:06:49.698Z,5.45
2023-01-15T07:09:17.310Z,6.13
2023-01-15T07:11:53.221Z,6.80
2023-01-15T07:18:30.568Z,5.85
2023-01-15T07:20:58.631Z,5.60
2023-01-15T07:23:28.539Z,6.82
2023-01-15T07:25:56.210Z,7.07
2023-01-15T07:28:24.134Z,6.20
2023-01-15T07:30:55.907Z,7.13
2023-01-15T07:33:23.206Z,7.47
2023-01-15T07:35:50.531Z,6.07
2023-01-15T07:38:20.942Z,5.68
2023-01-15T07:41:09.943Z,7.15
2023-01-15T07:44:03.553Z,5.20
2023-01-15T07:46:50.652Z,4.93
2023-01-15T07:49:40.267Z,5.20
2023-01-15T07:52:25.655Z,4.85
2023-01-15T07:54:53.504Z,5.28
2023-01-15T07:57:51.707Z,5.97
2023-01-15T08:00:23.271Z,5.78
2023-01-15T08:02:51.408Z,2.83
2023-01-15T08:05:21.030Z,5.40
2023-01-15T08:07:57.582Z,4.95
2023-01-15T08:10:27.863Z,6.43
2023-01-15T08:13:14.151Z,5.15
2023-01-15T08:15:48.527Z,5.85
2023-01-15T08:18:18.166Z,5.68
2023-01-15T08:20:51.670Z,5.03
2023-01-15T08:23:19.435Z,5.57
2023-01-15T08:25:49.647Z,3.78
2023-01-15T08:28:17.017Z,4.20
2023-01-15T08:30:44.245Z,4.88
2023-01-15T08:40:24.306Z,4.32
2023-01-15T08:46:01.273Z,2.40
2023-01-15T08:48:37.037Z,4.63
2023-01-15T08:51:10.861Z,3.72
2023-01-15T08:56:22.288Z,3.92
2023-01-15T09:06:40.555Z,4.18
2023-01-15T09:09:27.253Z,5.20
2023-01-15T09:12:01.028Z,3.03
2023-01-15T09:14:59.171Z,4.78
2023-01-15T09:18:02.700Z,5.22
2023-01-15T09:42:22.083Z,4.88
2023-01-15T09:45:33.833Z,3.40
2023-01-15T09:48:17.339Z,4.82
2023-01-15T09:50:54.485Z,4.22
2023-01-15T09:53:38.145Z,4.93
2023-01-15T09:56:21.865Z,4.53
2023-01-15T09:59:01.229Z,4.50
2023-01-15T10:01:31.862Z,5.28
2023-01-15T10:04:09.625Z,4.60
2023-01-15T10:06:49.916Z,6.10
2023-01-15T10:09:23.685Z,4.40
2023-01-15T10:12:40.767Z,4.00
2023-01-15T10:15:17.022Z,3.92
2023-01-15T10:17:58.741Z,3.63
2023-01-15T10:21:08.301Z,4.22
2023-01-15T10:23:42.171Z,4.45
2023-01-15T10:26:35.370Z,4.25
2023-01-15T10:29:27.025Z,3.40
2023-01-15T10:32:03.757Z,3.25
2023-01-15T10:35:18.803Z,2.42
2023-01-15T10:38:01.413Z,3.42
2023-01-15T10:40:47.251Z,2.17
2023-01-15T10:43:26.315Z,4.85
2023-01-15T10:46:02.176Z,3.80
2023-01-15T10:48:43.965Z,4.50
2023-01-15T10:51:26.059Z,4.38
2023-01-15T10:54:05.096Z,3.88
2023-01-15T10:56:38.083Z,4.50
2023-01-15T10:59:36.939Z,3.88
2023-01-15T11:02:25.201Z,4.03
2023-01-15T11:04:55.888Z,3.28
2023-01-15T11:07:32.314Z,3.83
2023-01-15T11:10:05.624Z,4.90
2023-01-15T11:12:57.152Z,5.30
2023-01-15T11:15:44.935Z,4.13
2023-01-15T11:18:34.570Z,4.93
2023-01-15T11:21:03.196Z,5.28
2023-01-15T11:23:36.516Z,4.88
2023-01-15T11:26:07.269Z,4.18
2023-01-15T11:28:43.180Z,4.75
2023-01-15T11:31:18.259Z,5.28
2023-01-15T11:34:03.965Z,4.57
2023-01-15T11:36:32.975Z,3.90
2023-01-15T11:39:00.208Z,4.00
2023-01-15T11:41:50.787Z,4.65
2023-01-15T11:44:38.589Z,4.53
2023-01-15T11:47:35.736Z,4.47
2023-01-15T11:50:21.950Z,5.70
2023-01-15T11:52:55.988Z,4.68
2023-01-15T11:55:28.327Z,4.25
2023-01-15T11:57:58.661Z,4.55
2023-01-15T12:00:33.720Z,5.15
2023-01-15T12:03:13.201Z,5.05
2023-01-15T12:05:59.319Z,4.13
2023-01-15T12:08:32.918Z,4.72
2023-01-15T12:11:26.690Z,4.93
2023-01-15T12:14:28.329Z,5.13
2023-01-15T12:17:36.653Z,5.63
2023-01-15T12:20:29.620Z,3.65
2023-01-15T12:23:33.459Z,4.05
2023-01-15T12:26:22.756Z,5.43
2023-01-15T12:28:58.835Z,5.47
2023-01-15T12:31:50.894Z,5.35
2023-01-15T12:34:25.657Z,5.32
2023-01-15T12:36:58.877Z,4.72
2023-01-15T12:39:40.465Z,4.30
2023-01-15T12:42:32.914Z,5.00
2023-01-15T12:45:07.905Z,4.78
2023-01-15T12:48:03.539Z,4.82
2023-01-15T12:50:50.047Z,5.13
2023-01-15T12:53:32.990Z,4.55
2023-01-15T12:56:37.275Z,3.08
2023-01-15T12:59:17.032Z,3.63
2023-01-15T13:01:53.170Z,5.63
2023-01-15T13:04:40.713Z,3.45
2023-01-15T13:07:30.304Z,3.35
2023-01-15T13:10:15.195Z,4.25
2023-01-15T13:12:42.258Z,5.05
2023-01-15T13:15:15.875Z,3.75
2023-01-15T13:18:23.332Z,4.93
2023-01-15T13:20:54.286Z,3.45
2023-01-15T13:23:52.552Z,2.28
2023-01-15T13:26:50.709Z,3.70
2023-01-15T13:29:24.875Z,2.60
2023-01-15T13:32:29.707Z,3.88
2023-01-15T13:34:57.743Z,5.47
2023-01-15T13:37:38.760Z,6.13
2023-01-15T13:40:37.487Z,4.10
2023-01-15T13:43:07.981Z,4.00
2023-01-15T13:45:48.617Z,2.40
2023-01-15T13:48:37.263Z,5.85
2023-01-15T13:51:07.559Z,7.55
2023-01-15T13:53:55.158Z,6.20
2023-01-15T13:56:32.979Z,3.90
2023-01-15T13:59:02.451Z,7.00
2023-01-15T14:01:37.648Z,4.72
2023-01-15T14:04:17.738Z,4.45
2023-01-15T14:06:52.197Z,5.28
2023-01-15T14:09:23.245Z,4.60
2023-01-15T14:12:12.621Z,5.60
2023-01-15T14:15:17.226Z,4.18
2023-01-15T14:18:05.370Z,2.35
2023-01-15T14:20:47.045Z,6.95
2023-01-15T14:23:58.376Z,6.43
2023-01-15T14:26:52.750Z,6.57
2023-01-15T14:29:50.898Z,5.18
2023-01-15T14:32:51.618Z,4.53
2023-01-15T14:35:24.363Z,4.55
2023-01-15T14:37:56.478Z,4.55
2023-01-15T14:40:31.236Z,6.22
2023-01-15T14:43:07.191Z,6.72
2023-01-15T14:45:46.800Z,7.10
2023-01-15T14:48:29.096Z,6.72
2023-01-15T14:51:38.200Z,5.03
2023-01-15T14:54:11.864Z,5.70
2023-01-15T14:57:16.672Z,7.65
2023-01-15T14:59:57.959Z,6.15
2023-01-15T15:02:38.052Z,7.03
2023-01-15T15:05:12.801Z,6.55
2023-01-15T15:07:48.697Z,5.78
2023-01-15T15:10:51.746Z,7.40
2023-01-15T15:13:40.344Z,4.72
2023-01-15T15:16:24.371Z,6.78
2023-01-15T15:19:02.639Z,4.97
2023-01-15T15:21:34.085Z,5.45
2023-01-15T15:24:23.096Z,6.75
2023-01-15T15:26:50.888Z,5.90
2023-01-15T15:29:21.037Z,4.22
2023-01-15T15:31:54.892Z,7.22
2023-01-15T15:34:41.148Z,6.18
2023-01-15T15:37:26.521Z,7.03
2023-01-15T15:40:18.834Z,6.53
2023-01-15T15:43:21.981Z,8.15
2023-01-15T15:46:15.391Z,7.90
2023-01-15T15:49:06.134Z,6.43
2023-01-15T15:51:35.830Z,5.28
2023-01-15T15:54:20.072Z,6.32
2023-01-15T15:57:18.497Z,6.82
2023-01-15T15:59:51.395Z,5.13
2023-01-15T16:02:56.448Z,5.78
2023-01-15T16:05:32.752Z,6.63
2023-01-15T16:08:19.487Z,4.57
2023-01-15T16:10:51.349Z,6.47
2023-01-15T16:13:32.749Z,5.20
2023-01-15T16:16:03.116Z,6.60
2023-01-15T16:18:41.115Z,6.32
2023-01-15T16:21:11.648Z,4.93
2023-01-15T16:23:38.660Z,7.70
2023-01-15T16:26:16.451Z,6.32
2023-01-15T16:28:48.587Z,5.65
2023-01-15T16:31:18.770Z,7.45
2023-01-15T16:33:47.645Z,6.15
2023-01-15T16:36:17.236Z,7.38
2023-01-15T16:38:48.916Z,5.60
2023-01-15T16:41:27.671Z,7.13
2023-01-15T16:44:01.814Z,5.57
2023-01-15T16:46:33.881Z,6.65
2023-01-15T16:49:22.306Z,4.97
2023-01-15T16:51:51.320Z,5.47
2023-01-15T16:54:30.693Z,5.65
2023-01-15T16:57:00.005Z,5.47
2023-01-15T16:59:28.865Z,5.35
2023-01-15T17:02:18.025Z,4.18
2023-01-15T17:07:41.136Z,6.50
2023-01-15T17:10:25.610Z,3.05
2023-01-15T17:12:57.329Z,5.53
2023-01-15T17:15:29.716Z,5.47
2023-01-15T17:17:57.528Z,5.60
2023-01-15T17:23:16.712Z,4.85
2023-01-15T17:25:48.248Z,5.50
2023-01-15T17:28:16.523Z,5.22
2023-01-15T17:30:45.856Z,7.10
2023-01-15T17:33:14.742Z,7.72
2023-01-15T17:35:42.877Z,6.28
2023-01-15T17:38:14.118Z,4.18
2023-01-15T17:40:41.601Z,5.50
2023-01-15T17:43:13.420Z,6.28
2023-01-15T17:45:41.032Z,8.70
2023-01-15T17:48:09.141Z,6.38
2023-01-15T17:50:41.210Z,7.28
2023-01-15T17:53:12.302Z,7.07
2023-01-15T17:55:58.061Z,7.97
2023-01-15T17:58:46.979Z,7.70
2023-01-15T18:01:42.544Z,8.05
2023-01-15T18:04:42.965Z,6.85
2023-01-15T18:07:12.346Z,5.57
2023-01-15T18:09:40.536Z,7.15
2023-01-15T18:12:08.885Z,6.18
2023-01-15T18:14:37.512Z,6.72
2023-01-15T18:17:05.218Z,6.85
2023-01-15T18:19:32.869Z,6.20
2023-01-15T18:22:00.210Z,6.90
2023-01-15T18:24:28.910Z,6.78
2023-01-15T18:26:55.972Z,5.43
2023-01-15T18:29:25.488Z,7.18
2023-01-15T18:31:52.498Z,7.28
2023-01-15T18:34:20.850Z,7.00
2023-01-15T18:37:09.252Z,6.95
2023-01-15T18:39:37.548Z,6.88
2023-01-15T18:42:05.797Z,7.85
2023-01-15T18:44:52.048Z,7.22
2023-01-15T18:47:19.330Z,6.85
2023-01-15T18:49:48.649Z,4.07
2023-01-15T18:52:40.039Z,5.90
2023-01-15T18:55:08.807Z,5.07
2023-01-15T18:57:36.494Z,6.60
2023-01-15T19:00:05.463Z,7.18
2023-01-15T19:02:32.647Z,7.22
2023-01-15T19:05:00.151Z,7.43
2023-01-15T19:07:27.283Z,7.32
2023-01-15T19:09:55.023Z,7.53
2023-01-15T19:12:23.267Z,4.97
2023-01-15T19:15:10.019Z,5.38
2023-01-15T19:17:57.256Z,3.90
2023-01-15T19:20:26.514Z,7.00
2023-01-15T19:23:04.161Z,7.47
2023-01-15T19:25:43.697Z,6.70
2023-01-15T19:28:15.960Z,6.95
2023-01-15T19:31:05.762Z,6.80
2023-01-15T19:33:33.827Z,5.05
2023-01-15T19:36:02.872Z,5.68
2023-01-15T19:38:34.031Z,5.97
2023-01-15T19:41:21.298Z,5.93
2023-01-15T19:44:14.615Z,6.15
2023-01-15T19:47:04.217Z,6.47
2023-01-15T19:50:03.852Z,5.53
2023-01-15T19:52:53.538Z,7.28
2023-01-15T19:55:25.602Z,9.07
2023-01-15T19:58:01.064Z,7.00
2023-01-15T20:00:29.677Z,8.25
2023-01-15T20:03:00.533Z,8.50
2023-01-15T20:05:30.043Z,7.65
2023-01-15T20:07:58.226Z,5.47
2023-01-15T20:10:28.280Z,8.13
2023-01-15T20:13:17.887Z,8.60
2023-01-15T20:15:48.714Z,8.65
2023-01-15T20:21:00.126Z,6.32
2023-01-15T20:23:27.148Z,6.00
2023-01-15T20:25:54.737Z,8.48
2023-01-15T20:28:33.225Z,8.20
2023-01-15T20:31:04.605Z,5.43
2023-01-15T20:33:33.418Z,8.95
2023-01-15T20:36:04.214Z,7.82
2023-01-15T20:38:59.553Z,7.05
2023-01-15T20:41:45.641Z,6.65
2023-01-15T20:44:31.657Z,9.27
2023-01-15T20:47:03.596Z,9.35
2023-01-15T20:49:33.566Z,6.53
2023-01-15T20:52:01.498Z,5.75
2023-01-15T20:54:28.930Z,9.68
2023-01-15T20:56:56.308Z,6.90
2023-01-15T20:59:23.331Z,9.23
2023-01-15T21:01:52.432Z,9.15
2023-01-15T21:04:20.508Z,8.15
2023-01-15T21:06:47.894Z,11.85
2023-01-15T21:09:14.880Z,8.57
2023-01-15T21:11:42.943Z,9.60
2023-01-15T21:14:10.549Z,7.65
2023-01-15T21:16:43.160Z,8.95
2023-01-15T21:19:10.463Z,8.38
2023-01-15T21:21:38.686Z,7.95
2023-01-15T21:24:05.945Z,9.50
2023-01-15T21:26:36.132Z,7.85
2023-01-15T21:29:03.679Z,9.15
2023-01-15T21:31:31.160Z,8.75
2023-01-15T21:33:59.142Z,9.43
2023-01-15T21:36:26.467Z,7.85
2023-01-15T21:38:54.738Z,8.23
2023-01-15T21:41:46.628Z,8.13
2023-01-15T21:44:38.102Z,10.57
2023-01-15T21:47:08.338Z,7.03
2023-01-15T21:49:35.876Z,8.75
2023-01-15T21:52:06.520Z,9.45
2023-01-15T21:54:33.737Z,8.43
2023-01-15T21:57:01.941Z,7.43
2023-01-15T21:59:28.943Z,9.00
2023-01-15T22:02:01.457Z,5.72
2023-01-15T22:04:30.653Z,7.22
2023-01-15T22:06:59.584Z,8.15
2023-01-15T22:09:26.568Z,9.18
2023-01-15T22:11:54.185Z,9.63
2023-01-15T22:14:32.664Z,9.20
2023-01-15T22:17:03.095Z,8.80
2023-01-15T22:19:32.182Z,5.13
2023-01-15T22:22:02.639Z,7.90
2023-01-15T22:24:32.260Z,9.90
2023-01-15T22:27:00.889Z,8.93
2023-01-15T22:29:32.564Z,7.70
2023-01-15T22:32:00.939Z,6.00
2023-01-15T22:34:28.404Z,7.45
2023-01-15T22:36:57.438Z,7.20
2023-01-15T22:39:25.860Z,8.50
2023-01-15T22:42:13.788Z,9.38
2023-01-15T22:44:44.151Z,9.60
2023-01-15T22:47:12.664Z,7.85
2023-01-15T22:49:39.789Z,9.45
2023-01-15T22:52:07.536Z,10.13
2023-01-15T22:54:34.860Z,10.38
2023-01-15T22:57:02.660Z,8.80
2023-01-15T22:59:30.018Z,8.15
2023-01-15T23:01:57.625Z,8.40
2023-01-15T23:04:25.767Z,9.88
2023-01-15T23:06:53.418Z,7.72
2023-01-15T23:09:22.491Z,9.07
2023-01-15T23:11:51.587Z,9.48
2023-01-15T23:14:21.360Z,9.30
2023-01-15T23:16:50.627Z,8.25
2023-01-15T23:19:18.790Z,8.60
2023-01-15T23:21:46.176Z,8.98
2023-01-15T23:24:13.273Z,9.85
2023-01-15T23:26:41.123Z,6.57
2023-01-15T23:29:08.227Z,8.65
2023-01-15T23:31:35.710Z,8.25
2023-01-15T23:34:02.995Z,6.40
2023-01-15T23:36:30.444Z,9.55
2023-01-15T23:38:57.822Z,7.35
2023-01-15T23:41:44.312Z,8.48
2023-01-15T23:44:38.481Z,9.43
2023-01-15T23:47:07.661Z,8.93
2023-01-15T23:49:35.772Z,9.20
2023-01-15T23:52:03.981Z,14.13
2023-01-15T23:54:31.910Z,8.55
2023-01-15T23:57:01.584Z,11.65
2023-01-15T23:59:29.465Z,12.00
